Time;durP1;ratioP1;P1;durP2;ratioP2;P2;SDS_P1;SDS_P2;PMS_P1;PMS_P2;Temp;Humidity;BMP_temperature;BMP_pressure;BME280_temperature;BME280_humidity;BME280_pressure;Samples;Min_cycle;Max_cycle;Signal;HPM_P1;HPM_P2
2023/04/01 00:02:18;;;;;;;1.15;0.03;;;10.90;69.60;;;;;;4973309;28;92426;-70
2023/04/01 00:04:44;;;;;;;1.30;0.00;;;10.90;69.50;;;;;;4974026;28;94482;-69
2023/04/01 00:07:10;;;;;;;1.75;0.00;;;10.80;69.30;;;;;;4969769;28;94175;-68
2023/04/01 00:09:36;;;;;;;1.17;0.00;;;10.80;69.70;;;;;;4967651;28;92883;-69
2023/04/01 00:12:02;;;;;;;0.30;0.00;;;10.80;69.90;;;;;;4966102;28;92559;-68
2023/04/01 00:14:28;;;;;;;0.77;0.00;;;10.80;69.90;;;;;;4967103;28;93252;-69
2023/04/01 00:16:54;;;;;;;0.15;0.00;;;10.80;69.90;;;;;;4969808;28;92900;-69
2023/04/01 00:19:20;;;;;;;1.55;0.00;;;10.80;69.00;;;;;;4968072;28;92952;-69
2023/04/01 00:21:46;;;;;;;1.10;0.00;;;10.70;69.60;;;;;;4972086;28;91920;-69
2023/04/01 00:24:12;;;;;;;1.13;0.00;;;10.80;70.10;;;;;;4964259;28;93741;-71
2023/04/01 00:26:37;;;;;;;0.10;0.00;;;10.70;70.40;;;;;;4966052;28;93372;-70
2023/04/01 00:29:03;;;;;;;1.10;0.00;;;10.70;70.50;;;;;;4971003;28;94420;-71
2023/04/01 00:31:29;;;;;;;0.30;0.00;;;10.70;70.80;;;;;;4974050;28;92441;-71
2023/04/01 00:33:56;;;;;;;1.17;0.00;;;10.70;70.40;;;;;;4968012;28;92737;-69
2023/04/01 00:36:22;;;;;;;0.43;0.00;;;10.70;70.90;;;;;;4969092;28;93190;-71
2023/04/01 00:38:49;;;;;;;0.98;0.00;;;10.60;70.20;;;;;;4968008;28;93353;-70
2023/04/01 00:41:16;;;;;;;1.08;0.00;;;10.60;70.40;;;;;;4967854;28;94269;-70
2023/04/01 00:43:48;;;;;;;0.32;0.00;;;10.70;70.60;;;;;;4962578;28;93178;-70
2023/04/01 00:46:14;;;;;;;1.27;0.00;;;10.70;70.30;;;;;;4971079;28;91672;-69
2023/04/01 00:48:45;;;;;;;0.20;0.00;;;10.60;70.50;;;;;;4965194;28;93272;-70
2023/04/01 00:51:18;;;;;;;0.55;0.00;;;10.70;70.30;;;;;;4967915;28;93814;-69
2023/04/01 00:53:48;;;;;;;0.55;0.00;;;10.60;70.80;;;;;;4966569;28;94067;-71
2023/04/01 00:56:22;;;;;;;0.73;0.00;;;10.60;71.00;;;;;;4965957;28;94249;-70
2023/04/01 00:58:51;;;;;;;0.25;0.00;;;10.60;71.10;;;;;;4963599;28;92869;-71
2023/04/01 01:01:18;;;;;;;0.38;0.00;;;10.60;70.50;;;;;;4963823;28;93094;-70
2023/04/01 01:03:44;;;;;;;1.40;0.00;;;10.70;68.60;;;;;;4971289;28;93082;-70
2023/04/01 01:06:21;;;;;;;0.57;0.00;;;10.80;69.00;;;;;;4965253;28;93589;-70
2023/04/01 01:08:57;;;;;;;1.45;0.00;;;10.80;68.00;;;;;;4967911;28;92455;-70
2023/04/01 01:11:37;;;;;;;2.55;0.00;;;10.90;67.50;;;;;;4974226;28;93366;-70
2023/04/01 01:14:24;;;;;;;1.83;0.00;;;10.90;67.30;;;;;;4965526;28;93701;-71
2023/04/01 01:16:59;;;;;;;0.65;0.00;;;11.00;66.90;;;;;;4965178;28;94399;-69
2023/04/01 01:19:37;;;;;;;1.02;0.00;;;11.00;67.40;;;;;;4974354;28;93673;-70
2023/04/01 01:22:20;;;;;;;0.77;0.00;;;11.00;66.60;;;;;;4970763;28;94180;-70
2023/04/01 01:25:11;;;;;;;1.58;0.00;;;11.10;67.10;;;;;;4964762;28;95082;-71
2023/04/01 01:27:42;;;;;;;0.82;0.00;;;11.10;67.20;;;;;;4981344;28;92913;-71
2023/04/01 01:30:37;;;;;;;2.17;0.00;;;11.10;66.60;;;;;;4973999;28;92965;-70
2023/04/01 01:33:32;;;;;;;0.57;0.00;;;11.10;66.80;;;;;;4970325;28;93634;-72
2023/04/01 01:36:01;;;;;;;1.98;0.20;;;11.10;66.80;;;;;;4964881;28;93720;-70
2023/04/01 01:38:31;;;;;;;0.40;0.00;;;11.00;66.80;;;;;;4971090;28;93192;-69
2023/04/01 01:40:59;;;;;;;1.88;0.00;;;11.00;67.70;;;;;;4973786;28;92646;-70
2023/04/01 01:43:30;;;;;;;2.92;0.10;;;11.00;67.40;;;;;;4966618;28;92839;-69
2023/04/01 01:45:59;;;;;;;0.30;0.00;;;11.00;66.70;;;;;;4967087;28;93543;-69
2023/04/01 01:48:27;;;;;;;0.73;0.00;;;11.00;67.10;;;;;;4965380;28;94470;-69
2023/04/01 01:50:53;;;;;;;1.13;0.00;;;11.10;66.80;;;;;;4967001;28;93550;-68
2023/04/01 01:53:19;;;;;;;0.52;0.00;;;11.10;66.30;;;;;;4970349;28;92503;-69
2023/04/01 01:55:46;;;;;;;0.88;0.00;;;11.10;66.90;;;;;;4969007;28;93811;-71
2023/04/01 01:58:27;;;;;;;0.77;0.00;;;11.10;67.00;;;;;;4968448;28;93414;-70
2023/04/01 02:00:57;;;;;;;0.75;0.00;;;11.10;66.80;;;;;;4967462;28;94235;-72
2023/04/01 02:03:25;;;;;;;0.40;0.00;;;11.00;67.70;;;;;;4970338;28;93670;-71
2023/04/01 02:05:55;;;;;;;0.28;0.00;;;10.90;67.40;;;;;;4978659;28;93383;-69
2023/04/01 02:08:29;;;;;;;0.40;0.00;;;11.00;68.60;;;;;;4972016;28;93153;-69
2023/04/01 02:11:02;;;;;;;0.17;0.00;;;10.90;67.50;;;;;;4970407;28;93900;-71
2023/04/01 02:13:37;;;;;;;0.10;0.00;;;10.90;68.00;;;;;;4970837;28;92586;-69
2023/04/01 02:16:08;;;;;;;1.30;0.00;;;10.90;68.20;;;;;;4970113;28;93665;-71
2023/04/01 02:18:38;;;;;;;0.00;0.00;;;10.80;69.20;;;;;;4972178;28;94245;-69
2023/04/01 02:21:05;;;;;;;0.82;0.00;;;10.90;68.90;;;;;;4967297;28;92837;-71
2023/04/01 02:23:35;;;;;;;1.73;0.00;;;10.80;68.70;;;;;;4971491;28;93767;-69
2023/04/01 02:26:02;;;;;;;0.60;0.10;;;10.80;68.40;;;;;;4977339;28;92649;-71
2023/04/01 02:28:31;;;;;;;2.08;0.00;;;10.80;68.20;;;;;;4971037;28;93550;-70
2023/04/01 02:31:00;;;;;;;0.43;0.00;;;10.80;69.20;;;;;;4967110;28;92783;-71
2023/04/01 02:33:27;;;;;;;0.95;0.00;;;10.80;68.00;;;;;;4967862;28;92358;-70
2023/04/01 02:35:53;;;;;;;0.00;0.00;;;10.80;68.00;;;;;;4975199;28;94425;-70
2023/04/01 02:38:18;;;;;;;0.32;0.00;;;10.80;67.80;;;;;;4967830;28;94475;-70
2023/04/01 02:40:50;;;;;;;0.20;0.00;;;10.80;67.30;;;;;;4974399;28;92528;-69
2023/04/01 02:43:17;;;;;;;0.20;0.00;;;10.70;67.60;;;;;;4977528;28;93186;-67
2023/04/01 02:45:43;;;;;;;0.40;0.00;;;10.80;68.00;;;;;;4970655;28;92539;-68
2023/04/01 02:48:09;;;;;;;0.15;0.00;;;10.70;68.30;;;;;;4968707;28;93948;-69
2023/04/01 02:50:35;;;;;;;1.67;0.00;;;10.70;68.50;;;;;;4967594;28;93190;-70
2023/04/01 02:53:03;;;;;;;0.65;0.00;;;10.70;68.70;;;;;;4973724;28;91932;-70
2023/04/01 02:55:30;;;;;;;0.85;0.00;;;10.60;69.30;;;;;;4972436;28;93641;-71
2023/04/01 02:57:56;;;;;;;1.30;0.00;;;10.60;69.50;;;;;;4976147;28;93984;-70
2023/04/01 03:00:21;;;;;;;1.27;0.00;;;10.60;70.10;;;;;;4967543;28;93891;-70
2023/04/01 03:02:47;;;;;;;1.63;0.00;;;10.60;69.60;;;;;;4971382;28;92566;-71
2023/04/01 03:05:13;;;;;;;0.47;0.00;;;10.60;68.40;;;;;;4971526;28;92828;-70
2023/04/01 03:07:39;;;;;;;1.13;0.00;;;10.60;67.60;;;;;;4968205;28;94789;-66
2023/04/01 03:10:06;;;;;;;2.92;0.00;;;10.70;67.00;;;;;;4971066;28;92619;-69
2023/04/01 03:12:32;;;;;;;0.55;0.00;;;10.70;64.90;;;;;;4970368;28;92191;-70
2023/04/01 03:14:57;;;;;;;1.08;0.00;;;10.70;65.10;;;;;;4972060;28;92347;-68
2023/04/01 03:17:23;;;;;;;0.98;0.00;;;10.80;65.60;;;;;;4963846;28;92900;-68
2023/04/01 03:19:49;;;;;;;1.65;0.00;;;10.80;65.10;;;;;;4973727;28;92423;-67
2023/04/01 03:22:15;;;;;;;0.47;0.00;;;10.80;65.00;;;;;;4967134;28;92541;-69
2023/04/01 03:24:40;;;;;;;0.85;0.00;;;10.80;64.70;;;;;;4971981;28;95240;-70
2023/04/01 03:27:06;;;;;;;1.90;0.08;;;10.80;63.30;;;;;;4968171;28;93630;-69
2023/04/01 03:29:31;;;;;;;1.75;0.10;;;10.80;63.60;;;;;;4973297;28;93251;-69
2023/04/01 03:31:58;;;;;;;0.50;0.00;;;10.80;64.20;;;;;;4976990;28;93064;-67
2023/04/01 03:34:25;;;;;;;1.88;0.00;;;10.80;64.10;;;;;;4970182;28;93421;-67
2023/04/01 03:36:51;;;;;;;1.02;0.00;;;10.80;63.70;;;;;;4975890;28;92584;-69
2023/04/01 03:39:18;;;;;;;1.17;0.00;;;10.80;63.70;;;;;;4972804;28;92664;-68
2023/04/01 03:41:45;;;;;;;1.17;0.00;;;10.80;64.10;;;;;;4967647;28;92862;-67
2023/04/01 03:44:11;;;;;;;1.60;0.13;;;10.80;63.90;;;;;;4969503;28;94798;-70
2023/04/01 03:46:37;;;;;;;4.00;0.00;;;10.80;64.10;;;;;;4969311;28;93414;-72
2023/04/01 03:49:11;;;;;;;0.55;0.00;;;10.80;63.70;;;;;;4970725;28;94040;-72
2023/04/01 03:51:41;;;;;;;1.67;0.08;;;10.70;63.50;;;;;;4970552;28;92802;-71
2023/04/01 03:54:07;;;;;;;0.63;0.00;;;10.70;63.60;;;;;;4965789;28;94153;-70
2023/04/01 03:56:33;;;;;;;1.80;0.00;;;10.80;63.30;;;;;;4965462;28;93654;-70
2023/04/01 03:59:03;;;;;;;0.40;0.00;;;10.80;64.10;;;;;;4969686;28;92406;-69
2023/04/01 04:01:29;;;;;;;0.65;0.00;;;10.80;64.70;;;;;;4973561;28;94046;-69
2023/04/01 04:03:56;;;;;;;0.47;0.00;;;10.80;64.00;;;;;;4968818;28;93063;-69
2023/04/01 04:06:22;;;;;;;0.20;0.00;;;10.80;64.10;;;;;;4969538;28;93463;-69
2023/04/01 04:08:49;;;;;;;1.08;0.00;;;10.80;64.00;;;;;;4972171;28;92377;-65
2023/04/01 04:11:15;;;;;;;1.17;0.10;;;10.80;64.60;;;;;;4966369;28;92264;-70
2023/04/01 04:13:41;;;;;;;0.57;0.00;;;10.70;64.10;;;;;;4966851;28;95401;-70
2023/04/01 04:16:08;;;;;;;0.95;0.10;;;10.70;64.00;;;;;;4965922;28;93304;-71
2023/04/01 04:18:34;;;;;;;0.50;0.00;;;10.70;63.60;;;;;;4967348;28;93699;-69
2023/04/01 04:21:00;;;;;;;0.70;0.00;;;10.70;63.40;;;;;;4968685;28;93215;-70
2023/04/01 04:23:25;;;;;;;2.70;0.00;;;10.70;63.90;;;;;;4970615;28;93542;-71
2023/04/01 04:25:58;;;;;;;0.10;0.00;;;10.60;64.40;;;;;;4972189;28;94414;-72
2023/04/01 04:28:26;;;;;;;0.55;0.00;;;10.60;64.10;;;;;;4966334;28;93548;-70
2023/04/01 04:30:51;;;;;;;1.48;0.00;;;10.50;64.10;;;;;;4973499;28;91937;-70
2023/04/01 04:33:17;;;;;;;1.45;0.00;;;10.40;64.20;;;;;;4966444;28;94633;-69
2023/04/01 04:35:43;;;;;;;0.43;0.00;;;10.40;64.00;;;;;;4971704;28;92778;-70
2023/04/01 04:38:08;;;;;;;0.85;0.00;;;10.40;63.80;;;;;;4963368;28;93508;-69
2023/04/01 04:40:37;;;;;;;0.50;0.00;;;10.40;64.20;;;;;;4964647;28;92358;-70
2023/04/01 04:43:03;;;;;;;0.63;0.00;;;10.50;64.20;;;;;;4963834;28;94050;-69
2023/04/01 04:45:29;;;;;;;0.32;0.00;;;10.50;64.30;;;;;;4956635;28;94127;-69
2023/04/01 04:47:54;;;;;;;0.57;0.00;;;10.50;65.10;;;;;;4966003;28;92410;-68
2023/04/01 04:50:20;;;;;;;0.90;0.00;;;10.50;65.00;;;;;;4958339;28;94153;-69
2023/04/01 04:52:46;;;;;;;0.68;0.00;;;10.40;64.80;;;;;;4964002;28;92679;-68
2023/04/01 04:55:12;;;;;;;1.27;0.03;;;10.40;65.20;;;;;;4964196;28;92618;-69
2023/04/01 04:57:37;;;;;;;0.15;0.00;;;10.30;64.50;;;;;;4952429;28;94244;-71
2023/04/01 05:00:04;;;;;;;1.02;0.00;;;10.30;65.30;;;;;;4957787;28;94088;-71
2023/04/01 05:02:29;;;;;;;0.63;0.00;;;10.20;64.90;;;;;;4959051;28;93567;-68
2023/04/01 05:04:55;;;;;;;1.02;0.10;;;10.30;64.50;;;;;;4949487;28;93219;-70
2023/04/01 05:07:21;;;;;;;0.95;0.10;;;10.30;64.90;;;;;;4956790;28;92819;-71
2023/04/01 05:09:46;;;;;;;0.90;0.10;;;10.40;64.50;;;;;;4963707;28;92599;-71
2023/04/01 05:12:12;;;;;;;1.20;0.10;;;10.50;64.90;;;;;;4961222;28;93471;-70
2023/04/01 05:14:39;;;;;;;1.77;0.20;;;10.60;66.50;;;;;;4960218;28;92832;-70
2023/04/01 05:17:12;;;;;;;1.60;0.10;;;10.60;67.80;;;;;;4961630;28;92471;-70
2023/04/01 05:19:38;;;;;;;1.77;0.00;;;10.70;66.70;;;;;;4968835;28;91776;-70
2023/04/01 05:22:04;;;;;;;1.23;0.00;;;10.70;67.20;;;;;;4967920;28;93383;-71
2023/04/01 05:24:31;;;;;;;2.65;0.00;;;10.60;67.60;;;;;;4963467;28;92910;-70
2023/04/01 05:26:57;;;;;;;0.75;0.08;;;10.60;70.00;;;;;;4963758;28;93335;-70
2023/04/01 05:29:23;;;;;;;0.40;0.00;;;10.60;67.10;;;;;;4963056;28;94016;-71
2023/04/01 05:31:49;;;;;;;2.72;0.00;;;10.60;69.10;;;;;;4957639;28;93639;-71
2023/04/01 05:34:15;;;;;;;0.57;0.00;;;10.60;70.40;;;;;;4980168;28;93485;-71
2023/04/01 05:36:42;;;;;;;0.60;0.00;;;10.70;67.90;;;;;;4971612;28;92633;-71
2023/04/01 05:39:08;;;;;;;1.00;0.00;;;10.70;67.50;;;;;;4968179;28;92350;-70
2023/04/01 05:41:37;;;;;;;1.25;0.00;;;10.70;66.80;;;;;;4960276;28;93383;-70
2023/04/01 05:44:03;;;;;;;1.10;0.00;;;10.70;70.40;;;;;;4967983;28;93008;-70
2023/04/01 05:46:29;;;;;;;1.67;0.03;;;10.80;68.30;;;;;;4967725;28;92340;-70
2023/04/01 05:48:54;;;;;;;0.70;0.00;;;10.80;68.10;;;;;;4966136;28;92440;-70
2023/04/01 05:51:21;;;;;;;0.88;0.00;;;10.80;68.10;;;;;;4976534;28;94071;-70
2023/04/01 05:53:46;;;;;;;1.40;0.10;;;10.80;67.50;;;;;;4973661;28;94304;-71
2023/04/01 05:56:12;;;;;;;0.77;0.05;;;10.90;67.30;;;;;;4975844;28;92682;-70
2023/04/01 05:58:39;;;;;;;1.65;0.00;;;10.90;67.20;;;;;;4983305;28;92742;-70
2023/04/01 06:01:10;;;;;;;1.05;0.10;;;11.00;68.40;;;;;;4991154;28;93843;-71
2023/04/01 06:03:36;;;;;;;0.93;0.00;;;10.90;67.10;;;;;;4993384;28;92672;-70
2023/04/01 06:06:02;;;;;;;0.88;0.20;;;11.00;66.80;;;;;;4981256;28;92485;-70
2023/04/01 06:08:31;;;;;;;1.13;0.10;;;11.10;67.30;;;;;;4987670;28;91729;-70
2023/04/01 06:11:18;;;;;;;0.17;0.00;;;11.20;67.60;;;;;;4966671;28;92697;-70
2023/04/01 06:14:05;;;;;;;0.50;0.00;;;11.30;66.20;;;;;;4966563;28;92872;-70
2023/04/01 06:16:58;;;;;;;0.90;0.00;;;11.40;65.60;;;;;;4982384;28;93465;-70
2023/04/01 06:19:57;;;;;;;0.85;0.10;;;11.60;65.60;;;;;;4971162;28;92496;-71
2023/04/01 06:22:50;;;;;;;0.30;0.00;;;11.60;65.00;;;;;;4981299;28;92559;-71
2023/04/01 06:25:53;;;;;;;0.28;0.00;;;11.70;66.60;;;;;;4992891;28;93470;-71
2023/04/01 06:28:21;;;;;;;;;;;11.80;64.80;;;;;;4973208;28;92560;-70
2023/04/01 06:31:10;;;;;;;0.30;0.00;;;11.80;67.20;;;;;;4998819;28;92424;-70
2023/04/01 06:33:57;;;;;;;2.45;0.00;;;11.50;64.70;;;;;;4969849;28;93853;-70
2023/04/01 06:36:34;;;;;;;0.32;0.00;;;11.40;67.20;;;;;;4973213;28;92490;-70
2023/04/01 06:39:25;;;;;;;1.35;0.05;;;11.30;67.00;;;;;;4965926;28;92260;-70
2023/04/01 06:41:59;;;;;;;3.42;0.10;;;11.30;67.90;;;;;;4968532;28;93931;-70
2023/04/01 06:44:55;;;;;;;1.60;0.00;;;11.40;68.90;;;;;;4967258;28;95194;-70
2023/04/01 06:47:30;;;;;;;0.88;0.00;;;11.40;68.40;;;;;;4966859;28;95405;-70
2023/04/01 06:50:16;;;;;;;0.95;0.00;;;11.80;68.50;;;;;;4968620;28;92636;-70
2023/04/01 06:52:44;;;;;;;0.77;0.10;;;11.90;68.70;;;;;;4967007;28;93267;-73
2023/04/01 06:55:42;;;;;;;1.30;0.40;;;13.40;66.90;;;;;;4968248;28;94287;-72
2023/04/01 06:58:25;;;;;;;1.08;0.10;;;16.50;59.50;;;;;;4981383;28;92732;-73
2023/04/01 07:00:54;;;;;;;0.68;0.20;;;19.30;52.70;;;;;;4988490;28;92988;-76
2023/04/01 07:03:38;;;;;;;0.82;0.30;;;20.90;48.60;;;;;;4975226;28;91976;-73
2023/04/01 07:06:36;;;;;;;0.73;0.20;;;22.60;46.10;;;;;;4968477;28;95278;-73
2023/04/01 07:09:14;;;;;;;1.35;0.20;;;24.00;43.30;;;;;;4976043;28;92285;-71
2023/04/01 07:11:40;;;;;;;1.48;0.40;;;24.10;42.00;;;;;;4974956;28;93536;-75
2023/04/01 07:14:25;;;;;;;0.40;0.10;;;23.90;41.70;;;;;;4964545;28;92621;-77
2023/04/01 07:17:11;;;;;;;1.10;0.35;;;22.80;42.10;;;;;;4976860;28;92653;-76
2023/04/01 07:20:01;;;;;;;1.17;0.20;;;22.20;45.50;;;;;;4989958;28;93085;-72
2023/04/01 07:22:33;;;;;;;1.25;0.13;;;24.10;41.90;;;;;;4973328;28;92414;-72
2023/04/01 07:25:11;;;;;;;3.22;0.13;;;23.60;41.90;;;;;;4976937;28;92621;-74
2023/04/01 07:27:37;;;;;;;2.08;0.20;;;22.30;43.50;;;;;;4989864;28;93291;-73
2023/04/01 07:30:13;;;;;;;0.35;0.10;;;21.70;43.90;;;;;;4996166;28;92257;-72
2023/04/01 07:32:46;;;;;;;0.38;0.10;;;21.50;44.60;;;;;;4980966;28;92388;-73
2023/04/01 07:35:16;;;;;;;0.70;0.20;;;21.00;45.30;;;;;;4996150;28;92374;-72
2023/04/01 07:38:00;;;;;;;3.50;0.20;;;20.40;46.50;;;;;;4995170;28;93639;-71
2023/04/01 07:40:52;;;;;;;0.70;0.10;;;19.50;47.80;;;;;;4967803;28;93334;-72
2023/04/01 07:43:24;;;;;;;3.58;0.10;;;18.70;49.20;;;;;;4988575;28;92413;-73
2023/04/01 07:46:08;;;;;;;0.80;0.10;;;18.60;50.70;;;;;;4986724;28;92274;-74
2023/04/01 07:48:44;;;;;;;1.60;0.10;;;18.70;51.40;;;;;;4968959;28;92715;-73
2023/04/01 07:51:22;;;;;;;;;;;18.90;50.50;;;;;;4974528;28;92496;-75
2023/04/01 07:53:56;;;;;;;0.63;0.25;;;18.90;50.50;;;;;;4975953;28;92438;-72
2023/04/01 07:56:41;;;;;;;0.77;0.00;;;18.80;50.50;;;;;;4969724;28;91952;-74
2023/04/01 07:59:28;;;;;;;0.20;0.00;;;18.50;50.60;;;;;;4974810;28;93296;-73
2023/04/01 08:02:00;;;;;;;0.68;0.00;;;17.20;52.00;;;;;;4956600;28;93829;-71
2023/04/01 08:04:56;;;;;;;0.90;0.10;;;16.30;54.80;;;;;;4964418;28;95429;-73
2023/04/01 08:07:39;;;;;;;;;;;15.80;58.20;;;;;;4977442;28;92559;-72
2023/04/01 08:10:19;;;;;;;0.93;0.20;;;15.40;57.90;;;;;;4987913;28;92459;-71
2023/04/01 08:13:05;;;;;;;0.30;0.10;;;15.20;57.60;;;;;;4959488;28;93049;-72
2023/04/01 08:15:36;;;;;;;0.20;0.00;;;14.90;58.20;;;;;;4959976;28;92567;-74
2023/04/01 08:18:27;;;;;;;0.82;0.00;;;14.80;58.30;;;;;;4959772;28;94325;-73
2023/04/01 08:21:08;;;;;;;0.40;0.00;;;14.50;59.60;;;;;;4963395;28;93160;-71
2023/04/01 08:23:40;;;;;;;0.40;0.00;;;14.50;59.90;;;;;;4965367;28;93584;-70
2023/04/01 08:26:29;;;;;;;0.40;0.00;;;14.40;58.80;;;;;;4961654;28;93647;-71
2023/04/01 08:29:15;;;;;;;0.50;0.00;;;14.00;61.70;;;;;;4964112;28;92481;-74
2023/04/01 08:31:45;;;;;;;1.30;0.00;;;13.90;62.00;;;;;;4955653;28;94719;-72
2023/04/01 08:34:22;;;;;;;0.40;0.00;;;14.00;61.20;;;;;;4958312;28;93887;-69
2023/04/01 08:37:03;;;;;;;1.98;0.00;;;14.00;62.40;;;;;;4966848;28;92428;-75
2023/04/01 08:39:48;;;;;;;0.80;0.00;;;14.00;61.50;;;;;;4962418;28;92834;-73
2023/04/01 08:42:52;;;;;;;0.82;0.00;;;14.20;61.20;;;;;;4961364;28;92529;-71
2023/04/01 08:45:27;;;;;;;0.20;0.00;;;14.20;59.60;;;;;;4960513;28;92705;-72
2023/04/01 08:48:08;;;;;;;1.00;0.00;;;14.20;60.00;;;;;;4963356;28;94372;-72
2023/04/01 08:50:52;;;;;;;1.27;0.10;;;14.20;60.00;;;;;;4962144;28;91966;-72
2023/04/01 08:53:31;;;;;;;0.50;0.00;;;14.20;62.00;;;;;;4965318;28;94816;-72
2023/04/01 08:56:17;;;;;;;0.50;0.00;;;14.20;64.10;;;;;;4971514;28;92423;-72
2023/04/01 08:58:51;;;;;;;0.30;0.10;;;14.40;63.50;;;;;;4972618;28;93506;-72
2023/04/01 09:01:32;;;;;;;1.30;0.00;;;14.50;63.50;;;;;;4973760;28;92555;-72
2023/04/01 09:04:34;;;;;;;0.90;0.10;;;14.30;62.10;;;;;;4963790;28;92590;-71
2023/04/01 09:07:14;;;;;;;0.10;0.00;;;14.10;61.70;;;;;;4974970;28;92660;-72
2023/04/01 09:10:06;;;;;;;0.88;0.00;;;14.00;61.60;;;;;;4961946;28;92636;-71
2023/04/01 09:12:56;;;;;;;0.47;0.00;;;13.70;61.90;;;;;;4966707;28;92593;-72
2023/04/01 09:15:40;;;;;;;0.20;0.00;;;13.70;61.70;;;;;;4962423;28;92985;-72
2023/04/01 09:18:09;;;;;;;0.50;0.00;;;13.60;60.30;;;;;;4972055;28;92925;-75
2023/04/01 09:20:59;;;;;;;0.70;0.00;;;13.60;62.40;;;;;;4966228;28;92568;-71
2023/04/01 09:23:29;;;;;;;0.20;0.00;;;13.50;64.30;;;;;;4970874;28;93450;-71
2023/04/01 09:26:27;;;;;;;0.30;0.00;;;13.50;63.40;;;;;;4966647;28;93571;-72
2023/04/01 09:29:08;;;;;;;2.08;0.00;;;13.50;62.80;;;;;;4964308;28;93761;-71
2023/04/01 09:31:42;;;;;;;0.77;0.00;;;13.50;61.80;;;;;;4967919;28;92493;-72
2023/04/01 09:34:23;;;;;;;0.30;0.00;;;13.30;63.40;;;;;;4970516;28;94356;-71
2023/04/01 09:37:17;;;;;;;0.35;0.00;;;13.30;63.80;;;;;;4974023;28;94530;-71
2023/04/01 09:40:09;;;;;;;0.17;0.00;;;13.30;63.20;;;;;;4969924;28;92561;-74
2023/04/01 09:43:23;;;;;;;0.65;0.00;;;13.40;62.90;;;;;;4978708;28;92922;-71
2023/04/01 09:45:58;;;;;;;0.30;0.00;;;13.50;63.60;;;;;;4967589;28;91748;-71
2023/04/01 09:48:38;;;;;;;0.52;0.00;;;13.50;63.30;;;;;;4963120;28;93419;-71
2023/04/01 09:51:39;;;;;;;0.20;0.05;;;13.50;65.00;;;;;;4966948;28;92804;-71
2023/04/01 09:54:17;;;;;;;0.50;0.00;;;13.50;64.00;;;;;;4965619;28;94466;-71
2023/04/01 09:57:19;;;;;;;2.38;0.00;;;13.30;66.10;;;;;;4971611;28;92228;-72
2023/04/01 09:59:57;;;;;;;1.20;0.00;;;13.30;67.10;;;;;;4977257;28;92763;-71
2023/04/01 10:02:22;;;;;;;0.40;0.00;;;13.30;67.50;;;;;;4963946;28;92892;-73
2023/04/01 10:05:19;;;;;;;0.68;0.00;;;13.50;66.80;;;;;;4972450;28;92660;-71
2023/04/01 10:08:00;;;;;;;1.50;0.00;;;13.50;66.40;;;;;;4985317;28;92175;-72
2023/04/01 10:10:29;;;;;;;0.30;0.00;;;13.50;66.50;;;;;;4976706;28;93645;-71
2023/04/01 10:13:52;;;;;;;0.32;0.00;;;13.30;66.90;;;;;;4974847;28;93404;-72
2023/04/01 10:16:23;;;;;;;0.30;0.00;;;13.30;66.50;;;;;;4974672;28;92470;-71
2023/04/01 10:19:22;;;;;;;0.70;0.00;;;13.20;65.90;;;;;;4983189;28;92670;-69
2023/04/01 10:22:17;;;;;;;0.13;0.00;;;13.10;65.40;;;;;;4971855;28;95156;-71
2023/04/01 10:24:51;;;;;;;0.63;0.00;;;13.10;66.60;;;;;;4969154;28;94164;-70
2023/04/01 10:27:42;;;;;;;1.20;0.00;;;13.00;65.20;;;;;;4990055;28;92654;-70
2023/04/01 10:30:28;;;;;;;0.25;0.00;;;12.90;66.40;;;;;;4992020;28;92521;-71
2023/04/01 10:33:35;;;;;;;0.30;0.00;;;12.80;66.90;;;;;;4976015;28;93599;-71
2023/04/01 10:36:22;;;;;;;1.65;0.00;;;12.90;67.20;;;;;;4973781;28;92799;-70
2023/04/01 10:39:06;;;;;;;0.75;0.00;;;13.00;66.00;;;;;;4969471;28;92456;-70
2023/04/01 10:42:02;;;;;;;0.75;0.00;;;12.90;66.70;;;;;;4968274;28;91526;-70
2023/04/01 10:44:40;;;;;;;0.30;0.00;;;13.00;68.50;;;;;;4987116;28;92572;-70
2023/04/01 10:47:26;;;;;;;2.30;0.00;;;13.10;65.60;;;;;;4970708;28;92977;-71
2023/04/01 10:50:01;;;;;;;0.30;0.00;;;13.20;66.80;;;;;;4973756;28;93350;-71
2023/04/01 10:53:01;;;;;;;0.35;0.00;;;13.30;67.10;;;;;;4970172;28;92819;-72
2023/04/01 10:55:55;;;;;;;0.25;0.00;;;13.30;66.20;;;;;;4978443;28;93341;-71
2023/04/01 10:58:43;;;;;;;0.75;0.03;;;13.30;66.10;;;;;;4985876;28;93449;-70
2023/04/01 11:01:20;;;;;;;1.65;0.00;;;13.20;66.00;;;;;;4976850;28;92471;-70
2023/04/01 11:04:18;;;;;;;0.40;0.00;;;13.30;64.80;;;;;;4965082;28;92856;-71
2023/04/01 11:07:08;;;;;;;0.60;0.10;;;13.20;65.10;;;;;;4959061;28;93764;-70
2023/04/01 11:09:45;;;;;;;0.30;0.00;;;13.10;67.30;;;;;;4971678;28;93426;-71
2023/04/01 11:12:30;;;;;;;0.10;0.00;;;13.30;66.60;;;;;;4967716;28;93428;-70
2023/04/01 11:15:15;;;;;;;0.98;0.10;;;13.40;64.20;;;;;;4971012;28;92502;-72
2023/04/01 11:18:02;;;;;;;0.88;0.10;;;13.40;62.80;;;;;;4966237;28;94019;-71
2023/04/01 11:20:54;;;;;;;0.25;0.00;;;13.40;65.40;;;;;;4961709;28;96134;-71
2023/04/01 11:23:29;;;;;;;0.10;0.00;;;13.50;63.50;;;;;;4962584;28;92802;-73
2023/04/01 11:26:06;;;;;;;0.10;0.00;;;13.80;63.80;;;;;;4966123;28;92470;-71
2023/04/01 11:28:55;;;;;;;0.38;0.03;;;14.00;62.60;;;;;;4966390;28;93239;-71
2023/04/01 11:31:29;;;;;;;0.15;0.00;;;14.10;59.70;;;;;;4976455;28;93641;-73
2023/04/01 11:34:19;;;;;;;0.63;0.10;;;14.20;62.10;;;;;;4959535;28;92595;-70
2023/04/01 11:37:09;;;;;;;0.77;0.10;;;14.30;60.70;;;;;;4983951;28;91707;-74
2023/04/01 11:40:12;;;;;;;0.60;0.10;;;14.40;61.00;;;;;;4964276;28;92857;-70
2023/04/01 11:42:51;;;;;;;1.08;0.10;;;14.40;61.90;;;;;;4973718;28;92676;-71
2023/04/01 11:45:33;;;;;;;0.70;0.00;;;14.60;60.20;;;;;;4977034;28;93340;-72
2023/04/01 11:48:36;;;;;;;0.70;0.00;;;14.70;60.30;;;;;;4968420;28;92537;-70
2023/04/01 11:51:24;;;;;;;;;;;14.80;60.40;;;;;;4973398;28;92684;-69
2023/04/01 11:54:09;;;;;;;0.50;0.10;;;14.90;59.90;;;;;;4966080;28;92713;-72
2023/04/01 11:56:46;;;;;;;0.20;0.00;;;15.00;60.50;;;;;;4967198;28;92437;-70
2023/04/01 11:59:30;;;;;;;0.10;0.00;;;15.10;59.40;;;;;;4971967;28;92977;-70
2023/04/01 12:02:33;;;;;;;0.35;0.00;;;15.00;59.40;;;;;;4976068;28;93096;-71
2023/04/01 12:05:37;;;;;;;0.40;0.00;;;15.10;59.40;;;;;;4965930;28;92233;-71
2023/04/01 12:08:24;;;;;;;0.35;0.03;;;15.20;59.50;;;;;;4980629;28;92581;-73
2023/04/01 12:11:17;;;;;;;0.10;0.00;;;15.10;61.30;;;;;;4966182;28;92574;-71
2023/04/01 12:14:18;;;;;;;0.60;0.10;;;15.10;59.40;;;;;;4970395;28;93838;-73
2023/04/01 12:16:52;;;;;;;0.45;0.03;;;15.20;58.70;;;;;;4973040;28;94349;-72
2023/04/01 12:19:28;;;;;;;0.20;0.00;;;15.30;59.10;;;;;;4972935;28;92417;-73
2023/04/01 12:22:10;;;;;;;0.30;0.05;;;15.40;57.80;;;;;;4974556;28;92862;-73
2023/04/01 12:24:35;;;;;;;0.20;0.00;;;15.60;58.80;;;;;;4973225;28;93190;-71
2023/04/01 12:27:09;;;;;;;1.92;0.10;;;15.50;57.20;;;;;;4968697;28;92810;-72
2023/04/01 12:29:54;;;;;;;0.40;0.00;;;15.40;59.00;;;;;;4968019;28;93184;-71
2023/04/01 12:32:26;;;;;;;0.22;0.00;;;15.50;59.80;;;;;;4979232;28;91908;-71
2023/04/01 12:34:58;;;;;;;0.73;0.00;;;15.50;58.50;;;;;;4993324;28;93446;-72
2023/04/01 12:37:47;;;;;;;0.00;0.00;;;15.60;57.50;;;;;;4985950;28;93245;-73
2023/04/01 12:40:56;;;;;;;0.60;0.10;;;15.70;58.10;;;;;;4970427;28;93443;-69
2023/04/01 12:43:28;;;;;;;0.20;0.00;;;15.50;57.80;;;;;;4969434;28;92344;-72
2023/04/01 12:46:00;;;;;;;0.30;0.00;;;15.40;60.40;;;;;;4969232;28;92659;-69
2023/04/01 12:48:34;;;;;;;0.20;0.00;;;15.20;62.30;;;;;;4971971;28;93587;-71
2023/04/01 12:51:06;;;;;;;0.30;0.00;;;15.00;60.30;;;;;;4971411;28;92385;-73
2023/04/01 12:54:12;;;;;;;0.35;0.00;;;14.90;60.30;;;;;;4987562;28;92717;-72
2023/04/01 12:56:38;;;;;;;0.40;0.00;;;15.00;60.40;;;;;;4992832;28;92787;-72
2023/04/01 12:59:26;;;;;;;0.20;0.00;;;15.00;60.00;;;;;;4979462;28;92887;-71
2023/04/01 13:02:11;;;;;;;0.10;0.00;;;15.00;58.20;;;;;;4959581;28;92440;-72
2023/04/01 13:04:55;;;;;;;0.20;0.00;;;15.00;58.90;;;;;;4971503;28;92460;-73
2023/04/01 13:07:21;;;;;;;0.52;0.00;;;15.00;58.20;;;;;;4974965;28;94727;-70
2023/04/01 13:10:24;;;;;;;0.10;0.00;;;15.00;58.20;;;;;;4975064;28;93294;-71
2023/04/01 13:13:27;;;;;;;0.47;0.00;;;15.00;60.00;;;;;;4976340;28;92331;-70
2023/04/01 13:16:07;;;;;;;0.28;0.10;;;15.00;58.90;;;;;;4969598;28;94354;-71
2023/04/01 13:18:54;;;;;;;0.30;0.00;;;15.10;58.90;;;;;;4969261;28;92781;-70
2023/04/01 13:21:45;;;;;;;0.10;0.00;;;14.90;57.30;;;;;;4969504;28;93539;-71
2023/04/01 13:24:30;;;;;;;1.05;0.00;;;15.10;58.00;;;;;;4966932;28;92831;-70
2023/04/01 13:27:07;;;;;;;1.10;0.10;;;15.20;59.40;;;;;;4966975;28;93112;-72
2023/04/01 13:29:40;;;;;;;0.40;0.20;;;15.40;60.30;;;;;;4979537;28;92737;-71
2023/04/01 13:32:20;;;;;;;0.20;0.00;;;15.60;58.20;;;;;;4965364;28;93250;-71
2023/04/01 13:35:15;;;;;;;0.17;0.00;;;15.70;56.50;;;;;;4979589;28;93490;-71
2023/04/01 13:38:13;;;;;;;0.30;0.00;;;15.60;55.90;;;;;;4967786;28;92571;-70